createdAt,value
2019-05-01T00:00:23.972Z,12.73
2019-05-01T00:03:17.926Z,12.23
2019-05-01T00:05:50.660Z,12.47
2019-05-01T00:08:19.629Z,12.93
2019-05-01T00:10:48.413Z,12.93
2019-05-01T00:13:17.636Z,12.93
2019-05-01T00:15:47.371Z,13.03
2019-05-01T00:18:16.338Z,12.10
2019-05-01T00:20:45.234Z,12.57
2019-05-01T00:23:14.200Z,13.77
2019-05-01T00:25:43.281Z,13.17
2019-05-01T00:28:12.365Z,12.37
2019-05-01T00:30:41.805Z,12.50
2019-05-01T00:33:10.757Z,12.53
2019-05-01T00:35:39.672Z,13.67
2019-05-01T00:38:08.725Z,13.20
2019-05-01T00:40:37.627Z,14.23
2019-05-01T00:43:06.603Z,13.23
2019-05-01T00:45:35.597Z,14.27
2019-05-01T00:48:04.675Z,13.60
2019-05-01T00:50:33.665Z,12.63
2019-05-01T00:53:02.702Z,13.10
2019-05-01T00:55:53.756Z,14.43
2019-05-01T00:58:36.357Z,15.00
2019-05-01T01:01:26.600Z,14.43
2019-05-01T01:03:55.488Z,14.33
2019-05-01T01:06:24.480Z,13.43
2019-05-01T01:08:53.358Z,14.33
2019-05-01T01:11:22.231Z,14.10
2019-05-01T01:13:51.285Z,14.43
2019-05-01T01:16:20.094Z,13.80
2019-05-01T01:18:48.967Z,14.00
2019-05-01T01:21:18.048Z,14.77
2019-05-01T01:23:47.255Z,14.50
2019-05-01T01:26:16.278Z,14.30
2019-05-01T01:28:45.234Z,13.80
2019-05-01T01:31:14.231Z,14.23
2019-05-01T01:33:43.168Z,14.10
2019-05-01T01:36:12.165Z,13.37
2019-05-01T01:38:41.149Z,13.73
2019-05-01T01:41:10.351Z,14.53
2019-05-01T01:43:56.284Z,13.23
2019-05-01T01:46:27.267Z,13.83
2019-05-01T01:48:56.538Z,13.83
2019-05-01T01:51:25.870Z,13.90
2019-05-01T01:53:55.571Z,13.33
2019-05-01T01:56:24.571Z,14.83
2019-05-01T01:58:54.048Z,15.30
2019-05-01T02:01:39.492Z,14.90
2019-05-01T02:04:24.783Z,15.10
2019-05-01T02:06:53.732Z,15.03
2019-05-01T02:09:22.715Z,14.77
2019-05-01T02:11:51.760Z,14.30
2019-05-01T02:14:20.650Z,13.53
2019-05-01T02:16:49.663Z,14.63
2019-05-01T02:19:18.623Z,15.60
2019-05-01T02:21:47.651Z,14.37
2019-05-01T02:24:16.656Z,15.53
2019-05-01T02:26:48.494Z,14.40
2019-05-01T02:29:32.438Z,13.77
2019-05-01T02:32:01.891Z,15.30
2019-05-01T02:34:31.490Z,14.10
2019-05-01T02:37:03.577Z,15.23
2019-05-01T02:39:34.809Z,14.27
2019-05-01T02:42:04.196Z,14.57
2019-05-01T02:44:39.938Z,15.13
2019-05-01T02:47:12.135Z,13.90
2019-05-01T02:49:54.810Z,13.70
2019-05-01T02:52:28.538Z,13.73
2019-05-01T02:55:01.229Z,14.75
2019-05-01T02:57:31.663Z,14.47
2019-05-01T03:00:00.886Z,14.27
2019-05-01T03:02:30.562Z,14.23
2019-05-01T03:05:00.344Z,14.15
2019-05-01T03:07:33.847Z,14.83
2019-05-01T03:10:08.973Z,15.20
2019-05-01T03:12:39.020Z,15.00
2019-05-01T03:15:09.050Z,15.23
2019-05-01T03:18:17.465Z,14.60
2019-05-01T03:21:00.702Z,14.83
2019-05-01T03:23:37.749Z,14.97
2019-05-01T03:26:06.845Z,16.00
2019-05-01T03:28:36.016Z,15.83
2019-05-01T03:31:05.690Z,15.37
2019-05-01T03:33:34.984Z,14.93
2019-05-01T03:36:04.945Z,15.33
2019-05-01T03:38:34.669Z,15.03
2019-05-01T03:41:03.934Z,14.47
2019-05-01T03:43:33.840Z,15.00
2019-05-01T03:46:03.215Z,16.10
2019-05-01T03:48:33.958Z,15.10
2019-05-01T03:51:03.486Z,16.40
2019-05-01T03:53:32.669Z,16.37
2019-05-01T03:56:01.939Z,15.83
2019-05-01T03:58:31.590Z,15.93
2019-05-01T04:01:13.105Z,15.07
2019-05-01T04:03:46.184Z,14.77
2019-05-01T04:06:15.558Z,15.23
2019-05-01T04:08:45.077Z,15.70
2019-05-01T04:11:14.376Z,15.43
2019-05-01T04:13:43.496Z,14.80
2019-05-01T04:16:13.206Z,15.93
2019-05-01T04:18:44.391Z,15.00
2019-05-01T04:21:14.798Z,14.67
2019-05-01T04:23:43.892Z,14.67
2019-05-01T04:26:13.822Z,15.57
2019-05-01T04:29:01.996Z,15.23
2019-05-01T04:31:45.115Z,15.60
2019-05-01T04:34:22.916Z,16.70
2019-05-01T04:36:54.630Z,17.50
2019-05-01T04:39:23.679Z,17.57
2019-05-01T04:41:53.532Z,17.43
2019-05-01T04:44:22.792Z,16.93
2019-05-01T04:46:53.544Z,17.73
2019-05-01T04:49:22.655Z,17.63
2019-05-01T04:51:51.793Z,17.67
2019-05-01T04:54:21.379Z,18.10
2019-05-01T04:56:50.597Z,17.40
2019-05-01T04:59:19.810Z,18.47
2019-05-01T05:01:58.112Z,17.80
2019-05-01T05:04:27.639Z,19.63
2019-05-01T05:06:56.867Z,19.17
2019-05-01T05:09:46.650Z,20.07
2019-05-01T05:12:23.447Z,19.50
2019-05-01T05:14:56.725Z,18.70
2019-05-01T05:17:26.661Z,19.93
2019-05-01T05:19:56.220Z,19.85
2019-05-01T05:22:25.751Z,19.93
2019-05-01T05:24:55.449Z,20.90
2019-05-01T05:27:25.241Z,19.47
2019-05-01T05:29:57.344Z,19.80
2019-05-01T05:32:28.561Z,19.47
2019-05-01T05:34:59.382Z,20.37
2019-05-01T05:37:36.453Z,20.33
2019-05-01T05:40:05.971Z,18.83
2019-05-01T05:42:35.251Z,19.70
2019-05-01T05:45:04.761Z,18.80
2019-05-01T05:47:33.972Z,18.95
2019-05-01T05:50:03.368Z,19.23
2019-05-01T05:52:47.009Z,20.03
2019-05-01T05:55:44.146Z,23.03
2019-05-01T05:58:22.148Z,23.40
2019-05-01T06:01:30.417Z,20.47
2019-05-01T06:04:19.400Z,21.03
2019-05-01T06:07:08.197Z,20.97
2019-05-01T06:09:48.549Z,20.77
2019-05-01T06:12:25.126Z,19.97
2019-05-01T06:15:08.173Z,19.93
2019-05-01T06:17:42.184Z,21.03
2019-05-01T06:20:37.480Z,22.57
2019-05-01T06:23:37.709Z,22.03
2019-05-01T06:26:24.969Z,21.43
2019-05-01T06:28:55.863Z,21.63
2019-05-01T06:31:25.841Z,22.00
2019-05-01T06:33:55.656Z,21.00
2019-05-01T06:36:24.606Z,22.80
2019-05-01T06:38:54.377Z,20.97
2019-05-01T06:41:28.807Z,22.53
2019-05-01T06:44:02.100Z,21.07
2019-05-01T06:47:06.229Z,22.73
2019-05-01T06:50:12.282Z,22.93
2019-05-01T06:52:41.785Z,21.23
2019-05-01T06:55:10.855Z,21.80
2019-05-01T06:57:43.809Z,22.17
2019-05-01T07:00:18.108Z,21.37
2019-05-01T07:02:49.100Z,21.57
2019-05-01T07:05:20.082Z,20.57
2019-05-01T07:07:53.277Z,20.60
2019-05-01T07:10:30.593Z,18.63
2019-05-01T07:12:51.660Z,18.57
2019-05-01T07:15:21.892Z,18.03
2019-05-01T07:17:51.483Z,18.47
2019-05-01T07:20:54.711Z,19.43
2019-05-01T07:23:24.111Z,17.93
2019-05-01T07:25:53.203Z,18.93
2019-05-01T07:28:23.062Z,19.10
2019-05-01T07:30:58.835Z,18.47
2019-05-01T07:33:28.044Z,18.13
2019-05-01T07:35:57.242Z,18.73
2019-05-01T07:38:26.246Z,20.00
2019-05-01T07:40:58.789Z,18.47
2019-05-01T07:43:42.343Z,18.63
2019-05-01T07:46:18.451Z,18.43
2019-05-01T07:48:48.877Z,18.47
2019-05-01T07:51:17.822Z,19.23
2019-05-01T07:53:46.957Z,19.23
2019-05-01T07:56:17.256Z,20.03
2019-05-01T07:58:47.443Z,19.63
2019-05-01T08:01:54.360Z,19.80
2019-05-01T08:04:35.909Z,20.03
2019-05-01T08:06:57.126Z,20.37
2019-05-01T08:09:23.999Z,19.70
2019-05-01T08:11:52.935Z,19.80
2019-05-01T08:14:21.954Z,21.00
2019-05-01T08:16:50.978Z,20.33
2019-05-01T08:19:28.058Z,21.43
2019-05-01T08:22:05.254Z,20.97
2019-05-01T08:24:34.428Z,21.93
2019-05-01T08:27:03.361Z,21.90
2019-05-01T08:29:54.579Z,22.00
2019-05-01T08:32:41.370Z,22.07
2019-05-01T08:35:12.532Z,21.90
2019-05-01T08:37:41.493Z,21.73
2019-05-01T08:40:10.972Z,22.60
2019-05-01T08:42:42.672Z,21.80
2019-05-01T08:45:48.136Z,21.27
2019-05-01T08:48:30.733Z,20.90
2019-05-01T08:51:00.516Z,22.03
2019-05-01T08:53:29.461Z,22.43
2019-05-01T08:55:58.481Z,22.07
2019-05-01T08:58:27.399Z,23.63
2019-05-01T09:00:56.397Z,22.07
2019-05-01T09:03:25.256Z,22.83
2019-05-01T09:05:57.559Z,22.10
2019-05-01T09:08:27.087Z,22.77
2019-05-01T09:11:00.271Z,23.60
2019-05-01T09:13:26.796Z,22.97
2019-05-01T09:15:55.799Z,22.60
2019-05-01T09:18:24.950Z,22.67
2019-05-01T09:20:56.232Z,20.83
2019-05-01T09:23:25.253Z,21.63
2019-05-01T09:26:06.768Z,21.93
2019-05-01T09:28:39.794Z,21.33
2019-05-01T09:31:08.901Z,22.50
2019-05-01T09:33:37.847Z,23.83
2019-05-01T09:36:07.140Z,21.30
2019-05-01T09:38:36.097Z,22.13
2019-05-01T09:41:05.589Z,20.70
2019-05-01T09:43:35.628Z,21.20
2019-05-01T09:46:05.594Z,20.03
2019-05-01T09:48:34.503Z,20.33
2019-05-01T09:51:25.921Z,19.33
2019-05-01T09:54:05.633Z,18.57
2019-05-01T09:56:32.935Z,18.90
2019-05-01T09:59:01.976Z,18.37
2019-05-01T10:01:32.887Z,20.27
2019-05-01T10:04:01.559Z,18.47
2019-05-01T10:06:30.511Z,17.23
2019-05-01T10:08:59.526Z,17.03
2019-05-01T10:11:28.528Z,14.47
2019-05-01T10:13:58.507Z,15.43
2019-05-01T10:16:28.256Z,15.30
2019-05-01T10:18:57.083Z,13.20
2019-05-01T10:21:27.275Z,12.97
2019-05-01T10:23:56.811Z,12.07
2019-05-01T10:26:27.344Z,14.80
2019-05-01T10:29:13.881Z,13.43
2019-05-01T10:32:16.997Z,14.70
2019-05-01T10:34:52.229Z,15.37
2019-05-01T10:37:23.569Z,14.00
2019-05-01T10:39:54.005Z,13.27
2019-05-01T10:42:22.403Z,12.10
2019-05-01T10:44:51.403Z,11.20
2019-05-01T10:47:20.420Z,10.93
2019-05-01T10:49:49.249Z,11.47
2019-05-01T10:52:18.233Z,10.23
2019-05-01T10:54:47.206Z,9.37
2019-05-01T10:57:16.156Z,10.27
2019-05-01T10:59:45.047Z,9.70
2019-05-01T11:02:15.701Z,10.20
2019-05-01T11:04:44.779Z,10.63
2019-05-01T11:07:13.566Z,10.57
2019-05-01T11:09:42.898Z,10.40
2019-05-01T11:12:11.947Z,9.30
2019-05-01T11:14:40.978Z,7.80
2019-05-01T11:17:09.837Z,7.87
2019-05-01T11:19:38.797Z,8.30
2019-05-01T11:22:07.667Z,9.27
2019-05-01T11:24:36.596Z,9.23
2019-05-01T11:27:05.598Z,9.10
2019-05-01T11:29:34.417Z,7.33
2019-05-01T11:32:20.251Z,7.23
2019-05-01T11:34:56.152Z,6.63
2019-05-01T11:37:59.436Z,10.17
2019-05-01T11:40:32.278Z,9.83
2019-05-01T11:43:02.802Z,10.33
2019-05-01T11:45:31.706Z,8.50
2019-05-01T11:48:00.650Z,9.33
2019-05-01T11:50:29.762Z,11.33
2019-05-01T11:52:58.699Z,7.07
2019-05-01T11:55:27.535Z,10.13
2019-05-01T11:57:56.427Z,11.23
2019-05-01T12:00:25.956Z,10.13
2019-05-01T12:02:54.802Z,11.10
2019-05-01T12:05:23.760Z,9.83
2019-05-01T12:07:52.604Z,10.13
2019-05-01T12:10:21.754Z,11.57
2019-05-01T12:12:50.837Z,12.53
2019-05-01T12:15:20.517Z,11.40
2019-05-01T12:17:50.180Z,10.60
2019-05-01T12:20:21.337Z,10.90
2019-05-01T12:22:51.532Z,11.40
2019-05-01T12:25:21.130Z,10.15
2019-05-01T12:27:50.081Z,9.60
2019-05-01T12:30:19.653Z,9.90
2019-05-01T12:32:49.106Z,9.37
2019-05-01T12:35:18.108Z,9.17
2019-05-01T12:37:47.034Z,9.37
2019-05-01T12:40:18.418Z,8.30
2019-05-01T12:42:47.540Z,8.70
2019-05-01T12:45:17.517Z,10.23
2019-05-01T12:47:49.792Z,8.30
2019-05-01T12:50:19.411Z,9.23
2019-05-01T12:53:02.691Z,7.80
2019-05-01T12:55:45.680Z,8.93
2019-05-01T12:58:14.596Z,8.93
2019-05-01T13:00:46.727Z,9.23
2019-05-01T13:03:15.744Z,8.00
2019-05-01T13:05:45.361Z,8.17
2019-05-01T13:08:14.350Z,8.27
2019-05-01T13:10:43.411Z,7.53
2019-05-01T13:13:12.356Z,7.53
2019-05-01T13:15:41.384Z,8.83
2019-05-01T13:18:10.396Z,6.80
2019-05-01T13:20:39.362Z,6.70
2019-05-01T13:23:09.104Z,7.15
2019-05-01T13:25:38.092Z,7.13
2019-05-01T13:28:24.894Z,7.77
2019-05-01T13:31:12.099Z,7.80
2019-05-01T13:33:41.171Z,6.43
2019-05-01T13:36:10.395Z,6.90
2019-05-01T13:38:39.309Z,6.90
2019-05-01T13:41:08.175Z,6.67
2019-05-01T13:43:37.617Z,6.17
2019-05-01T13:46:06.623Z,7.47
2019-05-01T13:48:35.622Z,7.40
2019-05-01T13:51:04.572Z,7.43
2019-05-01T13:53:33.555Z,7.70
2019-05-01T13:56:02.598Z,6.67
2019-05-01T13:58:31.710Z,7.80
2019-05-01T14:01:00.762Z,8.63
2019-05-01T14:03:29.800Z,7.03
2019-05-01T14:05:58.699Z,6.70
2019-05-01T14:08:27.722Z,6.85
2019-05-01T14:10:56.819Z,9.23
2019-05-01T14:13:25.755Z,10.88
2019-05-01T14:15:54.782Z,9.18
2019-05-01T14:18:23.877Z,11.05
2019-05-01T14:21:17.553Z,8.55
2019-05-01T14:24:04.616Z,8.47
2019-05-01T14:26:33.985Z,8.13
2019-05-01T14:29:02.999Z,6.83
2019-05-01T14:31:31.924Z,7.97
2019-05-01T14:34:00.857Z,7.23
2019-05-01T14:36:29.755Z,7.20
2019-05-01T14:38:58.821Z,6.97
2019-05-01T14:41:27.710Z,5.90
2019-05-01T14:43:56.872Z,6.70
2019-05-01T14:46:25.802Z,7.57
2019-05-01T14:48:54.712Z,7.42
2019-05-01T14:51:23.637Z,8.10
2019-05-01T14:53:52.629Z,8.18
2019-05-01T14:56:21.525Z,7.97
2019-05-01T14:58:50.464Z,7.70
2019-05-01T15:01:19.385Z,7.40
2019-05-01T15:03:48.480Z,6.50
2019-05-01T15:06:17.370Z,6.60
2019-05-01T15:08:46.454Z,6.63
2019-05-01T15:11:15.304Z,6.70
2019-05-01T15:13:50.626Z,5.90
2019-05-01T15:16:27.214Z,6.67
2019-05-01T15:19:04.598Z,7.17
2019-05-01T15:21:34.090Z,6.48
2019-05-01T15:24:02.884Z,6.63
2019-05-01T15:26:31.829Z,6.97
2019-05-01T15:29:00.770Z,5.83
2019-05-01T15:31:29.911Z,6.67
2019-05-01T15:33:58.751Z,8.08
2019-05-01T15:36:27.694Z,6.37
2019-05-01T15:38:57.213Z,6.83
2019-05-01T15:41:39.217Z,6.23
2019-05-01T15:44:19.396Z,6.33
2019-05-01T15:46:48.283Z,6.03
2019-05-01T15:49:19.244Z,6.63
2019-05-01T15:51:48.211Z,5.83
2019-05-01T15:54:17.193Z,5.62
2019-05-01T15:56:46.075Z,8.13
2019-05-01T15:59:15.041Z,6.95
2019-05-01T16:01:44.003Z,6.90
2019-05-01T16:04:12.983Z,6.42
2019-05-01T16:06:41.878Z,6.30
2019-05-01T16:09:11.155Z,6.10
2019-05-01T16:12:02.017Z,5.90
2019-05-01T16:14:31.028Z,7.37
2019-05-01T16:17:00.027Z,6.90
2019-05-01T16:19:29.046Z,6.40
2019-05-01T16:21:58.340Z,6.70
2019-05-01T16:24:27.199Z,6.25
2019-05-01T16:26:56.018Z,6.37
2019-05-01T16:29:24.816Z,7.37
2019-05-01T16:31:53.775Z,7.53
2019-05-01T16:34:22.580Z,6.23
2019-05-01T16:36:51.556Z,6.33
2019-05-01T16:39:51.925Z,6.10
2019-05-01T16:42:24.650Z,6.65
2019-05-01T16:44:53.449Z,6.42
2019-05-01T16:47:22.375Z,6.80
2019-05-01T16:49:51.300Z,5.73
2019-05-01T16:52:22.777Z,6.08
2019-05-01T16:54:59.141Z,5.80
2019-05-01T16:57:22.572Z,5.80
2019-05-01T16:59:51.473Z,5.78
2019-05-01T17:02:33.731Z,6.17
2019-05-01T17:05:15.159Z,6.33
2019-05-01T17:07:52.620Z,5.30
2019-05-01T17:10:26.622Z,5.72
2019-05-01T17:12:55.858Z,5.77
2019-05-01T17:15:41.766Z,5.77
2019-05-01T17:18:11.000Z,5.70
2019-05-01T17:20:40.011Z,5.43
2019-05-01T17:23:08.893Z,9.47
2019-05-01T17:25:37.919Z,7.07
2019-05-01T17:28:08.363Z,16.67
2019-05-01T17:30:40.070Z,11.77
2019-05-01T17:33:10.550Z,23.93
2019-05-01T17:35:41.824Z,21.13
2019-05-01T17:38:10.370Z,6.07
2019-05-01T17:40:39.288Z,6.10
2019-05-01T17:43:13.490Z,7.63
2019-05-01T17:45:38.855Z,6.83
2019-05-01T17:48:07.952Z,5.80
2019-05-01T17:50:36.806Z,5.00
2019-05-01T17:53:06.181Z,4.57
2019-05-01T17:55:35.167Z,5.83
2019-05-01T17:58:04.076Z,7.40
2019-05-01T18:01:01.231Z,5.70
2019-05-01T18:03:49.478Z,5.17
2019-05-01T18:06:25.653Z,5.23
2019-05-01T18:09:02.968Z,5.40
2019-05-01T18:11:25.102Z,8.23
2019-05-01T18:13:54.024Z,6.50
2019-05-01T18:16:23.033Z,4.83
2019-05-01T18:18:51.893Z,7.10
2019-05-01T18:21:20.945Z,5.27
2019-05-01T18:24:18.911Z,5.60
2019-05-01T18:26:53.100Z,5.13
2019-05-01T18:29:44.641Z,6.30
2019-05-01T18:32:18.981Z,7.40
2019-05-01T18:34:47.948Z,5.40
2019-05-01T18:37:22.502Z,5.27
2019-05-01T18:39:51.617Z,6.60
2019-05-01T18:42:20.589Z,5.23
2019-05-01T18:44:49.675Z,6.57
2019-05-01T18:47:18.855Z,5.57
2019-05-01T18:49:47.823Z,5.60
2019-05-01T18:52:16.668Z,6.07
2019-05-01T18:54:45.579Z,5.53
2019-05-01T18:57:14.673Z,6.77
2019-05-01T18:59:43.571Z,7.23
2019-05-01T19:02:12.563Z,6.03
2019-05-01T19:04:41.591Z,6.13
2019-05-01T19:07:10.411Z,6.33
2019-05-01T19:09:39.476Z,7.97
2019-05-01T19:12:09.943Z,7.80
2019-05-01T19:14:38.961Z,7.27
2019-05-01T19:17:07.782Z,8.03
2019-05-01T19:19:36.866Z,7.43
2019-05-01T19:22:06.160Z,6.70
2019-05-01T19:24:38.053Z,7.50
2019-05-01T19:27:05.789Z,6.97
2019-05-01T19:29:34.766Z,7.47
2019-05-01T19:32:03.937Z,6.93
2019-05-01T19:34:32.787Z,7.33
2019-05-01T19:37:01.816Z,7.77
2019-05-01T19:39:42.994Z,8.80
2019-05-01T19:42:01.502Z,7.80
2019-05-01T19:44:30.560Z,7.80
2019-05-01T19:46:59.576Z,8.43
2019-05-01T19:49:29.678Z,8.17
2019-05-01T19:52:00.714Z,7.83
2019-05-01T19:54:30.092Z,9.53
2019-05-01T19:56:59.127Z,9.65
2019-05-01T19:59:28.031Z,9.63
2019-05-01T20:01:57.100Z,9.10
2019-05-01T20:04:25.972Z,9.70
2019-05-01T20:06:54.965Z,9.37
2019-05-01T20:09:24.214Z,8.37
2019-05-01T20:11:53.513Z,8.77
2019-05-01T20:14:22.399Z,9.53
2019-05-01T20:16:51.475Z,9.90
2019-05-01T20:19:20.395Z,9.97
2019-05-01T20:21:49.434Z,10.40
2019-05-01T20:24:19.285Z,9.43
2019-05-01T20:26:48.360Z,11.40
2019-05-01T20:29:17.866Z,15.20
2019-05-01T20:31:50.626Z,15.83
2019-05-01T20:34:18.767Z,17.13
2019-05-01T20:36:47.838Z,18.50
2019-05-01T20:39:16.825Z,20.00
2019-05-01T20:41:45.784Z,20.93
2019-05-01T20:44:23.443Z,21.93
2019-05-01T20:46:45.290Z,22.87
2019-05-01T20:49:14.269Z,21.00
2019-05-01T20:51:43.135Z,21.63
2019-05-01T20:54:12.009Z,23.63
2019-05-01T20:57:03.557Z,26.20
2019-05-01T20:59:35.269Z,25.33
2019-05-01T21:02:07.657Z,26.10
2019-05-01T21:04:44.191Z,26.43
2019-05-01T21:07:32.198Z,24.97
2019-05-01T21:10:02.267Z,25.93
2019-05-01T21:12:31.196Z,25.07
2019-05-01T21:15:00.036Z,26.10
2019-05-01T21:17:28.923Z,25.03
2019-05-01T21:19:57.979Z,24.70
2019-05-01T21:22:27.060Z,24.83
2019-05-01T21:24:55.994Z,24.27
2019-05-01T21:27:25.032Z,25.07
2019-05-01T21:29:54.008Z,24.47
2019-05-01T21:32:27.107Z,23.77
2019-05-01T21:34:53.755Z,26.43
2019-05-01T21:37:22.651Z,24.93
2019-05-01T21:39:53.663Z,24.07
2019-05-01T21:42:24.403Z,25.73
2019-05-01T21:44:53.258Z,23.83
2019-05-01T21:47:23.687Z,24.73
2019-05-01T21:49:53.048Z,24.70
2019-05-01T21:52:26.310Z,22.80
2019-05-01T21:54:55.449Z,23.93
2019-05-01T21:57:24.511Z,22.53
2019-05-01T21:59:55.339Z,24.10
2019-05-01T22:02:24.482Z,25.40
2019-05-01T22:04:53.402Z,23.47
2019-05-01T22:07:23.777Z,22.63
2019-05-01T22:09:53.101Z,24.60
2019-05-01T22:12:22.368Z,24.53
2019-05-01T22:14:55.761Z,25.50
2019-05-01T22:17:52.120Z,23.97
2019-05-01T22:20:27.969Z,25.20
2019-05-01T22:23:04.028Z,25.23
2019-05-01T22:25:43.250Z,26.83
2019-05-01T22:28:19.047Z,27.17
2019-05-01T22:30:56.163Z,26.67
2019-05-01T22:33:45.958Z,26.30
2019-05-01T22:36:15.103Z,27.10
2019-05-01T22:38:46.574Z,27.37
2019-05-01T22:41:14.629Z,27.70
2019-05-01T22:43:43.642Z,27.13
2019-05-01T22:46:19.467Z,29.70
2019-05-01T22:48:48.450Z,29.53
2019-05-01T22:51:21.192Z,31.13
2019-05-01T22:53:54.551Z,30.07
2019-05-01T22:56:24.872Z,30.03
2019-05-01T22:58:54.001Z,32.47
2019-05-01T23:01:28.495Z,30.43
2019-05-01T23:03:59.816Z,30.17
2019-05-01T23:06:28.996Z,31.93
2019-05-01T23:08:58.035Z,31.53
2019-05-01T23:11:29.063Z,31.00
2019-05-01T23:13:58.071Z,32.47
2019-05-01T23:16:30.886Z,32.80
2019-05-01T23:18:59.789Z,33.30
2019-05-01T23:21:28.774Z,33.77
2019-05-01T23:24:01.840Z,35.17
2019-05-01T23:26:28.718Z,32.60
2019-05-01T23:28:57.603Z,34.77
2019-05-01T23:31:27.049Z,33.87
2019-05-01T23:33:56.040Z,35.17
2019-05-01T23:36:24.914Z,33.87
2019-05-01T23:38:53.935Z,34.87
2019-05-01T23:41:43.791Z,36.67
2019-05-01T23:43:53.642Z,34.87
2019-05-01T23:46:22.537Z,35.37
2019-05-01T23:48:51.536Z,37.27
2019-05-01T23:51:23.682Z,39.70
2019-05-01T23:53:51.129Z,38.70
2019-05-01T23:56:20.117Z,42.43
2019-05-01T23:58:49.110Z,42.93
